Skip Navigation Links
NOAA logo - Click to go to the NOAA homepage
NOAA's National Weather Service
Alaska Aviation Weather Unit
  NWS logo - Click to go to the NWS homepage
Left Navbar Graphic     02 AKDT = 10 GMT

   
NOAA is celebrating 200 years of science, service, and stewardship. Visit the NOAA 200th celebration Web site to learn more.
USA.gov is the U.S. Government's official Web portal to all Federal, state and local government Web resources and services.
Facebook
NWS on Facebook

AAWU Home :: Display TAF Add Bookmark
METAR PASV 270455Z AUTO 05002KT 10SM CLR M09/M17 A2957=

METAR PASV 270555Z AUTO 00000KT 10SM CLR M10/M18 A2956=

METAR PASV 270655Z AUTO 00000KT 10SM CLR M10/M18 A2955=

METAR PASV 270755Z AUTO 03002KT 10SM CLR M10/M18 A2954=

METAR PASV 270855Z AUTO 03001KT 10SM CLR M11/M17 A2953=

METAR PASV 270955Z AUTO 06005KT 10SM CLR M11/M17 A2952=


NOAA's National Weather Service
Alaska Aviation Weather Unit
6930 Sand Lake Road
Anchorage, AK 99502-1845
Disclaimer
Credits
Glossary
Privacy Policy
About Us
Career Opportunities
Contact AAWU Internet Services Site last modified: April, 17th 2012